createdAt,value
2023-01-19T00:00:49.885Z,98709.59
2023-01-19T00:03:17.949Z,98710.42
2023-01-19T00:05:44.876Z,98710.48
2023-01-19T00:08:17.729Z,98707.10
2023-01-19T00:10:48.903Z,98707.11
2023-01-19T00:13:15.754Z,98720.21
2023-01-19T00:15:42.372Z,98728.48
2023-01-19T00:18:10.832Z,98745.40
2023-01-19T00:20:38.504Z,98756.35
2023-01-19T00:23:05.310Z,98759.80
2023-01-19T00:25:32.177Z,98746.80
2023-01-19T00:28:01.351Z,98735.84
2023-01-19T00:30:28.759Z,98735.53
2023-01-19T00:32:55.609Z,98748.23
2023-01-19T00:35:22.273Z,98754.90
2023-01-19T00:37:49.000Z,98748.04
2023-01-19T00:40:15.770Z,98750.97
2023-01-19T00:42:45.566Z,98749.46
2023-01-19T00:45:14.573Z,98738.20
2023-01-19T00:47:41.389Z,98748.92
2023-01-19T00:50:09.157Z,98756.56
2023-01-19T00:52:35.827Z,98757.54
2023-01-19T00:55:02.494Z,98744.98
2023-01-19T00:57:29.621Z,98739.10
2023-01-19T00:59:56.484Z,98745.59
2023-01-19T01:02:23.391Z,98751.55
2023-01-19T01:04:54.861Z,98744.90
2023-01-19T01:07:22.340Z,98744.88
2023-01-19T01:09:49.039Z,98745.64
2023-01-19T01:12:15.711Z,98744.52
2023-01-19T01:14:42.524Z,98738.55
2023-01-19T01:17:11.389Z,98737.40
2023-01-19T01:19:38.489Z,98751.67
2023-01-19T01:22:05.319Z,98759.44
2023-01-19T01:24:32.705Z,98761.52
2023-01-19T01:26:59.429Z,98761.02
2023-01-19T01:29:26.460Z,98753.06
2023-01-19T01:31:53.250Z,98759.46
2023-01-19T02:17:58.632Z,98802.36
2023-01-19T02:20:26.636Z,98796.42
2023-01-19T02:22:53.395Z,98797.16
2023-01-19T02:25:20.597Z,98799.21
2023-01-19T02:27:47.885Z,98799.42
2023-01-19T02:30:16.555Z,98797.06
2023-01-19T02:32:43.701Z,98801.15
2023-01-19T02:35:11.442Z,98798.71
2023-01-19T05:01:11.167Z,98845.02
2023-01-19T05:03:37.943Z,98838.48
2023-01-19T05:06:04.956Z,98838.08
2023-01-19T05:08:31.676Z,98853.41
2023-01-19T05:10:58.406Z,98848.39
2023-01-19T05:13:25.186Z,98857.95
2023-01-19T05:15:51.798Z,98854.24
2023-01-19T05:18:18.525Z,98856.27
2023-01-19T05:20:45.262Z,98855.61
2023-01-19T05:23:12.012Z,98850.58
2023-01-19T05:25:38.650Z,98852.95
2023-01-19T05:28:05.389Z,98858.85
2023-01-19T05:30:32.141Z,98841.71
2023-01-19T05:32:59.318Z,98838.39
2023-01-19T05:35:35.317Z,98851.60
2023-01-19T05:38:02.764Z,98866.30
2023-01-19T05:40:29.460Z,98864.41
2023-01-19T05:43:01.042Z,98860.70
2023-01-19T05:45:28.491Z,98863.38
2023-01-19T05:47:55.319Z,98862.76
2023-01-19T05:50:21.946Z,98873.33
2023-01-19T05:52:48.845Z,98883.45
2023-01-19T05:55:16.589Z,98861.80
2023-01-19T05:57:43.449Z,98847.20
2023-01-19T06:00:10.717Z,98859.46
2023-01-19T06:02:37.485Z,98868.66
2023-01-19T06:05:04.616Z,98865.20
2023-01-19T06:07:31.851Z,98870.23
2023-01-19T06:09:58.762Z,98866.70
2023-01-19T06:12:25.474Z,98860.27
2023-01-19T06:14:52.187Z,98844.75
2023-01-19T06:17:19.033Z,98815.23
2023-01-19T06:19:45.662Z,98792.84
2023-01-19T06:22:12.684Z,98775.00
2023-01-19T06:24:39.349Z,98767.66
2023-01-19T06:27:06.609Z,98758.24
2023-01-19T06:29:33.395Z,98738.41
2023-01-19T06:32:00.167Z,98726.98
2023-01-19T06:34:28.932Z,98723.57
2023-01-19T06:36:56.393Z,98719.19
2023-01-19T06:39:23.079Z,98718.42
2023-01-19T06:41:49.862Z,98717.57
2023-01-19T06:44:16.656Z,98712.49
2023-01-19T06:46:43.415Z,98713.20
2023-01-19T06:49:10.075Z,98701.40
2023-01-19T06:51:36.793Z,98691.52
2023-01-19T06:54:03.547Z,98690.98
2023-01-19T06:56:30.261Z,98685.59
2023-01-19T06:58:57.005Z,98685.88
2023-01-19T07:01:23.759Z,98685.92
2023-01-19T07:03:50.471Z,98691.77
2023-01-19T07:06:17.156Z,98697.16
2023-01-19T07:08:44.001Z,98710.07
2023-01-19T07:11:26.597Z,98714.27
2023-01-19T07:13:57.304Z,98715.84
2023-01-19T07:16:24.235Z,98722.90
2023-01-19T07:18:51.095Z,98724.30
2023-01-19T07:21:17.745Z,98725.14
2023-01-19T07:23:44.547Z,98724.30
2023-01-19T07:26:11.187Z,98724.72
2023-01-19T07:28:37.921Z,98732.44
2023-01-19T07:31:05.216Z,98723.27
2023-01-19T07:33:31.998Z,98722.46
2023-01-19T07:35:58.733Z,98715.89
2023-01-19T07:38:25.558Z,98720.64
2023-01-19T07:40:52.156Z,98720.21
2023-01-19T07:43:18.809Z,98709.46
2023-01-19T07:45:45.620Z,98710.98
2023-01-19T07:48:12.457Z,98715.70
2023-01-19T07:50:39.148Z,98720.42
2023-01-19T07:53:06.425Z,98728.98
2023-01-19T07:55:33.125Z,98722.54
2023-01-19T07:57:59.856Z,98721.19
2023-01-19T08:00:26.685Z,98721.55
2023-01-19T08:02:53.910Z,98720.77
2023-01-19T08:05:20.850Z,98719.95
2023-01-19T08:07:48.388Z,98721.66
2023-01-19T08:10:15.471Z,98714.78
2023-01-19T08:12:42.680Z,98711.26
2023-01-19T08:15:10.323Z,98712.21
2023-01-19T08:17:37.196Z,98714.91
2023-01-19T08:20:03.995Z,98725.23
2023-01-19T08:22:30.714Z,98734.70
2023-01-19T08:24:57.452Z,98741.95
2023-01-19T08:27:24.211Z,98751.53
2023-01-19T08:29:50.834Z,98758.61
2023-01-19T08:32:17.672Z,98754.33
2023-01-19T08:34:44.329Z,98750.44
2023-01-19T08:37:11.480Z,98743.38
2023-01-19T08:39:38.218Z,98734.98
2023-01-19T08:42:05.379Z,98737.71
2023-01-19T08:44:32.155Z,98746.38
2023-01-19T08:47:00.019Z,98750.59
2023-01-19T08:49:26.748Z,98750.06
2023-01-19T08:51:53.510Z,98749.36
2023-01-19T08:54:21.792Z,98750.45
2023-01-19T08:56:48.671Z,98754.04
2023-01-19T08:59:15.388Z,98755.92
2023-01-19T09:01:42.173Z,98757.52
2023-01-19T09:04:09.089Z,98753.51
2023-01-19T09:06:35.873Z,98748.30
2023-01-19T09:09:02.721Z,98760.17
2023-01-19T09:11:29.479Z,98763.14
2023-01-19T09:13:56.220Z,98768.85
2023-01-19T09:16:22.976Z,98761.17
2023-01-19T09:18:49.783Z,98753.63
2023-01-19T09:21:16.517Z,98754.02
2023-01-19T09:23:43.278Z,98749.27
2023-01-19T09:26:09.962Z,98751.33
2023-01-19T09:28:37.680Z,98744.64
2023-01-19T09:31:06.673Z,98735.92
2023-01-19T09:33:33.702Z,98737.52
2023-01-19T09:36:00.452Z,98735.16
2023-01-19T09:38:31.498Z,98733.15
2023-01-19T09:40:59.130Z,98726.95
2023-01-19T09:43:33.933Z,98722.29
2023-01-19T09:46:02.646Z,98718.29
2023-01-19T09:48:47.711Z,98711.64
2023-01-19T09:51:41.481Z,98698.39
2023-01-19T09:54:14.579Z,98691.67
2023-01-19T09:56:42.445Z,98696.58
2023-01-19T09:59:21.083Z,98693.85
2023-01-19T10:02:06.568Z,98687.38
2023-01-19T13:27:28.555Z,98581.54
2023-01-19T13:29:55.331Z,98588.27
2023-01-19T13:32:24.672Z,98586.77
2023-01-19T13:34:53.224Z,98600.48
2023-01-19T13:37:24.498Z,98597.92
2023-01-19T13:39:52.429Z,98607.85
2023-01-19T13:42:29.896Z,98603.27
2023-01-19T13:44:58.835Z,98596.03
2023-01-19T13:47:31.098Z,98591.51
2023-01-19T13:49:58.235Z,98591.63
2023-01-19T13:52:26.410Z,98595.98
2023-01-19T13:55:02.506Z,98600.05
2023-01-19T13:57:33.858Z,98601.48
2023-01-19T14:00:11.922Z,98602.65
2023-01-19T14:02:42.388Z,98608.42
2023-01-19T14:05:32.580Z,98607.66
2023-01-19T14:08:13.024Z,98611.21
2023-01-19T14:10:42.424Z,98605.27
2023-01-19T14:13:26.273Z,98608.12
2023-01-19T14:15:55.394Z,98613.28
2023-01-19T14:18:27.259Z,98613.02
2023-01-19T14:21:01.587Z,98619.38
2023-01-19T14:23:38.801Z,98619.48
2023-01-19T14:26:06.344Z,98628.18
2023-01-19T14:28:42.376Z,98627.42
2023-01-19T14:31:20.298Z,98634.48
2023-01-19T14:33:48.423Z,98629.89
2023-01-19T14:36:17.553Z,98631.88
2023-01-19T14:38:48.135Z,98631.51
2023-01-19T14:41:42.627Z,98635.52
2023-01-19T14:44:10.357Z,98629.97
2023-01-19T14:46:37.388Z,98633.30
2023-01-19T14:49:05.435Z,98635.42
2023-01-19T14:51:32.215Z,98636.73
2023-01-19T14:53:59.679Z,98629.47
2023-01-19T14:56:32.680Z,98626.10
2023-01-19T14:59:00.934Z,98624.42
2023-01-19T15:01:31.293Z,98632.94
2023-01-19T15:03:58.311Z,98634.90
2023-01-19T15:06:25.375Z,98629.77
2023-01-19T15:08:53.521Z,98623.42
2023-01-19T15:11:26.358Z,98621.85
2023-01-19T15:13:53.292Z,98618.98
2023-01-19T15:16:20.172Z,98617.27
2023-01-19T15:18:46.951Z,98618.36
2023-01-19T15:21:15.222Z,98616.80
2023-01-19T15:23:42.091Z,98615.34
2023-01-19T15:26:10.371Z,98615.29
2023-01-19T15:28:37.084Z,98618.59
2023-01-19T15:31:03.788Z,98618.81
2023-01-19T15:33:34.476Z,98618.55
2023-01-19T15:36:01.403Z,98617.44
2023-01-19T15:38:28.191Z,98615.48
2023-01-19T15:40:54.780Z,98613.92
2023-01-19T15:43:21.563Z,98616.06
2023-01-19T15:45:48.503Z,98619.17
2023-01-19T15:48:15.240Z,98615.52
2023-01-19T15:50:42.736Z,98615.75
2023-01-19T15:53:16.765Z,98617.13
2023-01-19T15:55:43.612Z,98619.30
2023-01-19T15:58:12.478Z,98620.94
2023-01-19T16:00:40.625Z,98626.38
2023-01-19T16:03:07.477Z,98620.52
2023-01-19T16:05:42.467Z,98619.88
2023-01-19T16:08:11.225Z,98619.06
2023-01-19T16:10:38.137Z,98629.20
2023-01-19T16:13:04.743Z,98636.21
2023-01-19T16:15:31.466Z,98632.08
2023-01-19T16:17:58.477Z,98635.27
2023-01-19T16:20:25.172Z,98638.46
2023-01-19T16:22:51.908Z,98632.38
2023-01-19T16:25:18.604Z,98639.46
2023-01-19T16:27:45.338Z,98638.71
2023-01-19T16:30:12.638Z,98636.77
2023-01-19T16:32:39.481Z,98638.45
2023-01-19T16:35:06.314Z,98636.93
2023-01-19T16:37:33.143Z,98638.89
2023-01-19T16:39:59.756Z,98635.92
2023-01-19T16:42:26.438Z,98637.29
2023-01-19T16:44:54.602Z,98624.15
2023-01-19T16:47:21.347Z,98626.41
2023-01-19T16:49:47.923Z,98622.66
2023-01-19T16:52:14.643Z,98623.80
2023-01-19T16:54:42.858Z,98624.89
2023-01-19T16:57:10.056Z,98624.33
2023-01-19T16:59:37.386Z,98625.80
2023-01-19T17:02:04.328Z,98621.60
2023-01-19T17:04:31.120Z,98625.36
2023-01-19T17:06:57.964Z,98622.23
2023-01-19T17:09:24.726Z,98616.75
2023-01-19T17:11:51.438Z,98614.64
2023-01-19T17:14:21.841Z,98624.09
2023-01-19T17:16:48.759Z,98625.17
2023-01-19T17:19:19.693Z,98618.49
2023-01-19T17:21:48.638Z,98625.02
2023-01-19T17:24:15.770Z,98626.66
2023-01-19T17:26:42.720Z,98628.24
2023-01-19T17:29:09.568Z,98630.75
2023-01-19T17:31:36.509Z,98626.29
2023-01-19T17:34:03.562Z,98624.22
2023-01-19T17:36:31.327Z,98617.96
2023-01-19T17:38:59.191Z,98615.52
2023-01-19T17:41:28.249Z,98610.23
2023-01-19T17:43:55.210Z,98615.23
2023-01-19T17:46:24.065Z,98619.80
2023-01-19T17:48:52.279Z,98614.95
2023-01-19T17:51:19.022Z,98616.37
2023-01-19T17:53:46.399Z,98610.36
2023-01-19T17:56:14.656Z,98616.66
2023-01-19T17:58:41.542Z,98612.25
2023-01-19T18:01:10.355Z,98613.71
2023-01-19T18:03:37.280Z,98609.15
2023-01-19T18:06:04.198Z,98609.27
2023-01-19T18:08:32.594Z,98612.14
2023-01-19T18:11:00.310Z,98617.36
2023-01-19T18:13:28.533Z,98618.89
2023-01-19T18:16:03.075Z,98616.50
2023-01-19T18:18:31.105Z,98615.53
2023-01-19T18:21:01.678Z,98610.09
2023-01-19T18:23:28.538Z,98616.39
2023-01-19T18:26:06.349Z,98617.37
2023-01-19T18:28:33.496Z,98614.60
2023-01-19T18:31:00.738Z,98617.53
2023-01-19T18:33:28.268Z,98619.86
2023-01-19T18:35:55.183Z,98623.83
2023-01-19T18:38:22.620Z,98614.48
2023-01-19T18:40:49.535Z,98615.02
2023-01-19T18:43:16.238Z,98620.67
2023-01-19T18:45:42.940Z,98624.25
2023-01-19T18:48:09.674Z,98624.58
2023-01-19T18:50:37.363Z,98626.49
2023-01-19T18:53:04.109Z,98627.52
2023-01-19T18:55:30.790Z,98626.79
2023-01-19T18:57:57.637Z,98629.27
2023-01-19T20:47:48.848Z,98678.77
2023-01-19T20:50:15.900Z,98681.33
2023-01-19T20:52:42.913Z,98681.91
2023-01-19T20:55:10.414Z,98683.93
2023-01-19T20:57:37.671Z,98686.92
2023-01-19T21:00:05.428Z,98692.17
2023-01-19T21:02:32.696Z,98685.06
2023-01-19T21:04:59.470Z,98688.70
2023-01-19T21:07:26.239Z,98689.79
2023-01-19T21:09:53.038Z,98700.30
2023-01-19T21:12:21.574Z,98703.21
2023-01-19T21:14:48.347Z,98701.16
2023-01-19T21:17:15.000Z,98707.73
2023-01-19T21:19:41.689Z,98712.19
2023-01-19T21:22:08.387Z,98712.54
2023-01-19T21:24:35.299Z,98713.27
2023-01-19T21:27:02.224Z,98714.80
2023-01-19T21:29:29.126Z,98721.46
2023-01-19T21:31:55.806Z,98714.37
2023-01-19T21:34:22.721Z,98710.35
2023-01-19T21:36:49.593Z,98718.23
2023-01-19T21:39:17.411Z,98721.21
2023-01-19T21:41:45.099Z,98719.59
2023-01-19T21:44:12.437Z,98725.34
2023-01-19T21:46:39.214Z,98727.69
2023-01-19T21:49:06.422Z,98726.98
2023-01-19T21:51:34.706Z,98729.13
2023-01-19T21:54:02.412Z,98726.41
2023-01-19T21:56:29.263Z,98738.61
2023-01-19T21:58:56.215Z,98749.58
2023-01-19T22:01:23.689Z,98746.31
2023-01-19T22:03:57.616Z,98752.00
2023-01-19T22:06:25.013Z,98753.50
2023-01-19T22:08:51.750Z,98754.30
2023-01-19T22:11:18.806Z,98758.10
2023-01-19T22:13:45.482Z,98757.13
2023-01-19T22:16:13.873Z,98757.20
2023-01-19T22:18:42.355Z,98765.61
2023-01-19T22:21:14.200Z,98771.52
2023-01-19T22:23:41.018Z,98775.77
2023-01-19T22:26:07.845Z,98780.48
2023-01-19T22:28:34.632Z,98783.29
2023-01-19T22:31:05.265Z,98791.30
2023-01-19T22:33:32.048Z,98787.71
2023-01-19T22:36:19.688Z,98786.67
2023-01-19T22:38:56.868Z,98794.55
2023-01-19T22:41:28.456Z,98799.16
2023-01-19T22:43:56.725Z,98801.61
2023-01-19T22:46:25.115Z,98802.79
2023-01-19T22:48:52.287Z,98800.80
2023-01-19T22:51:19.300Z,98795.60
2023-01-19T22:53:46.187Z,98799.56
2023-01-19T22:56:17.829Z,98798.81
2023-01-19T22:58:45.138Z,98795.06
2023-01-19T23:01:26.033Z,98798.10
2023-01-19T23:03:53.419Z,98808.95
2023-01-19T23:06:27.753Z,98805.27
2023-01-19T23:08:55.234Z,98798.39
2023-01-19T23:11:29.819Z,98799.54
2023-01-19T23:13:57.588Z,98804.64
2023-01-19T23:16:24.535Z,98805.09
2023-01-19T23:18:55.560Z,98804.78
2023-01-19T23:21:23.123Z,98804.95
2023-01-19T23:23:53.204Z,98808.91
2023-01-19T23:26:19.962Z,98808.23
2023-01-19T23:28:46.767Z,98809.62
2023-01-19T23:31:40.189Z,98810.77
2023-01-19T23:34:07.980Z,98809.69
2023-01-19T23:36:36.088Z,98812.66
2023-01-19T23:39:06.647Z,98817.98
2023-01-19T23:41:34.616Z,98820.66
2023-01-19T23:44:01.430Z,98824.91
2023-01-19T23:46:28.462Z,98822.31
2023-01-19T23:48:55.102Z,98821.45
2023-01-19T23:51:23.594Z,98822.33
2023-01-19T23:53:50.338Z,98824.83
2023-01-19T23:56:19.886Z,98824.56
2023-01-19T23:58:48.244Z,98829.45
